sensor_id;sensor_type;location;lat;lon;timestamp;temperature;humidity
13251;DHT22;6692;50.710;7.180;2022-11-15T00:01:56;12.10;99.90
13251;DHT22;6692;50.710;7.180;2022-11-15T00:03:58;12.20;99.90
13251;DHT22;6692;50.710;7.180;2022-11-15T00:06:03;12.20;99.90
13251;DHT22;6692;50.710;7.180;2022-11-15T00:08:04;12.20;99.90
13251;DHT22;6692;50.710;7.180;2022-11-15T00:10:05;12.20;99.90
13251;DHT22;6692;50.710;7.180;2022-11-15T00:12:07;12.20;99.90
13251;DHT22;6692;50.710;7.180;2022-11-15T00:14:08;12.20;99.90
13251;DHT22;6692;50.710;7.180;2022-11-15T00:16:08;12.20;99.90
13251;DHT22;6692;50.710;7.180;2022-11-15T00:18:12;12.20;99.90
13251;DHT22;6692;50.710;7.180;2022-11-15T00:20:12;12.10;99.90
13251;DHT22;6692;50.710;7.180;2022-11-15T00:22:12;12.20;99.90
13251;DHT22;6692;50.710;7.180;2022-11-15T00:24:14;12.20;99.90
13251;DHT22;6692;50.710;7.180;2022-11-15T00:26:15;12.20;99.90
13251;DHT22;6692;50.710;7.180;2022-11-15T00:28:16;12.20;99.90
13251;DHT22;6692;50.710;7.180;2022-11-15T00:30:17;12.20;99.90
13251;DHT22;6692;50.710;7.180;2022-11-15T00:32:17;12.20;99.90
13251;DHT22;6692;50.710;7.180;2022-11-15T00:34:18;12.20;99.90
13251;DHT22;6692;50.710;7.180;2022-11-15T00:36:18;12.20;99.90
13251;DHT22;6692;50.710;7.180;2022-11-15T00:38:19;12.20;99.90
13251;DHT22;6692;50.710;7.180;2022-11-15T00:40:20;12.20;99.90
13251;DHT22;6692;50.710;7.180;2022-11-15T00:42:20;12.20;99.90
13251;DHT22;6692;50.710;7.180;2022-11-15T00:44:21;12.20;99.90
13251;DHT22;6692;50.710;7.180;2022-11-15T00:46:22;12.10;99.90
13251;DHT22;6692;50.710;7.180;2022-11-15T00:48:22;12.20;99.90
13251;DHT22;6692;50.710;7.180;2022-11-15T00:50:23;12.10;99.90
13251;DHT22;6692;50.710;7.180;2022-11-15T00:52:24;12.20;99.90
13251;DHT22;6692;50.710;7.180;2022-11-15T00:54:24;12.20;99.90
13251;DHT22;6692;50.710;7.180;2022-11-15T00:56:25;12.20;99.90
13251;DHT22;6692;50.710;7.180;2022-11-15T00:58:26;12.30;99.90
13251;DHT22;6692;50.710;7.180;2022-11-15T01:00:26;12.30;99.90
13251;DHT22;6692;50.710;7.180;2022-11-15T01:02:27;12.30;99.90
13251;DHT22;6692;50.710;7.180;2022-11-15T01:04:28;12.40;99.90
13251;DHT22;6692;50.710;7.180;2022-11-15T01:06:28;12.40;99.90
13251;DHT22;6692;50.710;7.180;2022-11-15T01:08:30;12.40;99.90
13251;DHT22;6692;50.710;7.180;2022-11-15T01:10:30;12.40;99.90
13251;DHT22;6692;50.710;7.180;2022-11-15T01:12:31;12.50;99.90
13251;DHT22;6692;50.710;7.180;2022-11-15T01:14:32;12.50;99.90
13251;DHT22;6692;50.710;7.180;2022-11-15T01:16:32;12.60;99.90
13251;DHT22;6692;50.710;7.180;2022-11-15T01:18:33;12.50;99.90
13251;DHT22;6692;50.710;7.180;2022-11-15T01:20:34;12.60;99.90
13251;DHT22;6692;50.710;7.180;2022-11-15T01:22:34;12.60;99.90
13251;DHT22;6692;50.710;7.180;2022-11-15T01:24:35;12.60;99.90
13251;DHT22;6692;50.710;7.180;2022-11-15T01:26:36;12.60;99.90
13251;DHT22;6692;50.710;7.180;2022-11-15T01:28:37;12.60;99.90
13251;DHT22;6692;50.710;7.180;2022-11-15T01:30:37;12.60;99.90
13251;DHT22;6692;50.710;7.180;2022-11-15T01:32:38;12.60;99.90
13251;DHT22;6692;50.710;7.180;2022-11-15T01:34:38;12.60;99.90
13251;DHT22;6692;50.710;7.180;2022-11-15T01:36:39;12.50;99.90
13251;DHT22;6692;50.710;7.180;2022-11-15T01:38:40;12.60;99.90
13251;DHT22;6692;50.710;7.180;2022-11-15T01:40:41;12.50;99.90
13251;DHT22;6692;50.710;7.180;2022-11-15T01:42:42;12.60;99.90
13251;DHT22;6692;50.710;7.180;2022-11-15T01:44:44;12.60;99.90
13251;DHT22;6692;50.710;7.180;2022-11-15T01:46:44;12.60;99.90
13251;DHT22;6692;50.710;7.180;2022-11-15T01:48:44;12.60;99.90
13251;DHT22;6692;50.710;7.180;2022-11-15T01:50:44;12.60;99.90
13251;DHT22;6692;50.710;7.180;2022-11-15T01:52:45;12.60;99.90
13251;DHT22;6692;50.710;7.180;2022-11-15T01:54:47;12.60;99.90
13251;DHT22;6692;50.710;7.180;2022-11-15T01:56:50;12.60;99.90
13251;DHT22;6692;50.710;7.180;2022-11-15T01:58:49;12.60;99.90
13251;DHT22;6692;50.710;7.180;2022-11-15T02:00:49;12.60;99.90
13251;DHT22;6692;50.710;7.180;2022-11-15T02:02:50;12.60;99.90
13251;DHT22;6692;50.710;7.180;2022-11-15T02:04:51;12.60;99.90
13251;DHT22;6692;50.710;7.180;2022-11-15T02:06:51;12.60;99.90
13251;DHT22;6692;50.710;7.180;2022-11-15T02:08:53;12.60;99.90
13251;DHT22;6692;50.710;7.180;2022-11-15T02:10:53;12.60;99.90
13251;DHT22;6692;50.710;7.180;2022-11-15T02:12:54;12.70;99.90
13251;DHT22;6692;50.710;7.180;2022-11-15T02:14:55;12.70;99.90
13251;DHT22;6692;50.710;7.180;2022-11-15T02:17:01;12.70;99.90
13251;DHT22;6692;50.710;7.180;2022-11-15T02:19:10;12.70;99.90
13251;DHT22;6692;50.710;7.180;2022-11-15T02:21:10;12.70;99.90
13251;DHT22;6692;50.710;7.180;2022-11-15T02:23:20;12.70;99.90
13251;DHT22;6692;50.710;7.180;2022-11-15T02:25:36;12.80;99.90
13251;DHT22;6692;50.710;7.180;2022-11-15T02:27:48;12.80;99.90
13251;DHT22;6692;50.710;7.180;2022-11-15T02:29:54;12.80;99.90
13251;DHT22;6692;50.710;7.180;2022-11-15T02:31:55;12.80;99.90
13251;DHT22;6692;50.710;7.180;2022-11-15T02:34:22;12.80;99.90
13251;DHT22;6692;50.710;7.180;2022-11-15T02:38:36;12.80;99.90
13251;DHT22;6692;50.710;7.180;2022-11-15T02:40:43;12.90;99.90
13251;DHT22;6692;50.710;7.180;2022-11-15T02:42:43;12.90;99.90
13251;DHT22;6692;50.710;7.180;2022-11-15T02:44:49;12.90;99.90
13251;DHT22;6692;50.710;7.180;2022-11-15T02:46:51;12.80;99.90
13251;DHT22;6692;50.710;7.180;2022-11-15T02:48:56;12.90;99.90
13251;DHT22;6692;50.710;7.180;2022-11-15T02:50:57;12.90;99.90
13251;DHT22;6692;50.710;7.180;2022-11-15T02:52:58;12.90;99.90
13251;DHT22;6692;50.710;7.180;2022-11-15T02:54:59;12.90;99.90
13251;DHT22;6692;50.710;7.180;2022-11-15T02:57:01;12.90;99.90
13251;DHT22;6692;50.710;7.180;2022-11-15T02:59:07;12.90;99.90
13251;DHT22;6692;50.710;7.180;2022-11-15T03:01:32;12.90;99.90
13251;DHT22;6692;50.710;7.180;2022-11-15T03:03:33;13.00;99.90
13251;DHT22;6692;50.710;7.180;2022-11-15T03:07:51;13.00;99.90
13251;DHT22;6692;50.710;7.180;2022-11-15T03:10:06;13.00;99.90
13251;DHT22;6692;50.710;7.180;2022-11-15T03:12:09;13.00;99.90
13251;DHT22;6692;50.710;7.180;2022-11-15T03:14:12;12.90;99.90
13251;DHT22;6692;50.710;7.180;2022-11-15T03:16:10;12.90;99.90
13251;DHT22;6692;50.710;7.180;2022-11-15T03:18:13;13.00;99.90
13251;DHT22;6692;50.710;7.180;2022-11-15T03:20:13;13.00;99.90
13251;DHT22;6692;50.710;7.180;2022-11-15T03:22:15;13.00;99.90
13251;DHT22;6692;50.710;7.180;2022-11-15T03:24:14;13.00;99.90
13251;DHT22;6692;50.710;7.180;2022-11-15T03:26:15;13.00;99.90
13251;DHT22;6692;50.710;7.180;2022-11-15T03:28:19;13.00;99.90
13251;DHT22;6692;50.710;7.180;2022-11-15T03:30:19;13.00;99.90
13251;DHT22;6692;50.710;7.180;2022-11-15T03:32:21;13.00;99.90
13251;DHT22;6692;50.710;7.180;2022-11-15T03:34:23;13.00;99.90
13251;DHT22;6692;50.710;7.180;2022-11-15T03:36:21;13.00;99.90
13251;DHT22;6692;50.710;7.180;2022-11-15T03:38:25;13.00;99.90
13251;DHT22;6692;50.710;7.180;2022-11-15T03:40:41;13.00;99.90
13251;DHT22;6692;50.710;7.180;2022-11-15T03:42:55;13.00;99.90
13251;DHT22;6692;50.710;7.180;2022-11-15T03:44:55;13.00;99.90
13251;DHT22;6692;50.710;7.180;2022-11-15T03:46:57;13.00;99.90
13251;DHT22;6692;50.710;7.180;2022-11-15T03:48:57;13.00;99.90
13251;DHT22;6692;50.710;7.180;2022-11-15T03:50:55;13.00;99.90
13251;DHT22;6692;50.710;7.180;2022-11-15T03:52:56;13.00;99.90
13251;DHT22;6692;50.710;7.180;2022-11-15T03:54:57;13.00;99.90
13251;DHT22;6692;50.710;7.180;2022-11-15T03:56:58;13.00;99.90
13251;DHT22;6692;50.710;7.180;2022-11-15T03:58:58;13.00;99.90
13251;DHT22;6692;50.710;7.180;2022-11-15T04:00:59;13.00;99.90
13251;DHT22;6692;50.710;7.180;2022-11-15T04:03:00;13.00;99.90
13251;DHT22;6692;50.710;7.180;2022-11-15T04:05:00;13.00;99.90
13251;DHT22;6692;50.710;7.180;2022-11-15T04:07:01;13.00;99.90
13251;DHT22;6692;50.710;7.180;2022-11-15T04:09:02;13.00;99.90
13251;DHT22;6692;50.710;7.180;2022-11-15T04:11:02;12.90;99.90
13251;DHT22;6692;50.710;7.180;2022-11-15T04:13:03;12.80;99.90
13251;DHT22;6692;50.710;7.180;2022-11-15T04:15:05;12.70;99.90
13251;DHT22;6692;50.710;7.180;2022-11-15T04:17:08;12.50;99.90
13251;DHT22;6692;50.710;7.180;2022-11-15T04:19:09;12.50;99.90
13251;DHT22;6692;50.710;7.180;2022-11-15T04:21:16;12.40;99.90
13251;DHT22;6692;50.710;7.180;2022-11-15T04:23:23;12.40;99.90
13251;DHT22;6692;50.710;7.180;2022-11-15T04:27:37;12.20;99.90
13251;DHT22;6692;50.710;7.180;2022-11-15T04:29:38;12.20;99.90
13251;DHT22;6692;50.710;7.180;2022-11-15T04:31:38;12.20;99.90
13251;DHT22;6692;50.710;7.180;2022-11-15T04:33:39;12.10;99.90
13251;DHT22;6692;50.710;7.180;2022-11-15T04:35:40;12.10;99.90
13251;DHT22;6692;50.710;7.180;2022-11-15T04:37:40;12.10;99.90
13251;DHT22;6692;50.710;7.180;2022-11-15T04:39:41;12.10;99.90
13251;DHT22;6692;50.710;7.180;2022-11-15T04:41:42;12.10;99.90
13251;DHT22;6692;50.710;7.180;2022-11-15T04:43:43;12.30;99.90
13251;DHT22;6692;50.710;7.180;2022-11-15T04:45:44;12.30;99.90
13251;DHT22;6692;50.710;7.180;2022-11-15T04:47:45;12.40;99.90
13251;DHT22;6692;50.710;7.180;2022-11-15T04:49:45;12.50;99.90
13251;DHT22;6692;50.710;7.180;2022-11-15T04:51:46;12.60;99.90
13251;DHT22;6692;50.710;7.180;2022-11-15T04:53:47;12.70;99.90
13251;DHT22;6692;50.710;7.180;2022-11-15T04:55:48;12.70;99.90
13251;DHT22;6692;50.710;7.180;2022-11-15T04:57:56;12.70;99.90
13251;DHT22;6692;50.710;7.180;2022-11-15T04:59:49;12.70;99.90
13251;DHT22;6692;50.710;7.180;2022-11-15T05:01:50;12.80;99.90
13251;DHT22;6692;50.710;7.180;2022-11-15T05:03:51;12.80;99.90
13251;DHT22;6692;50.710;7.180;2022-11-15T05:05:58;12.80;99.90
13251;DHT22;6692;50.710;7.180;2022-11-15T05:07:58;12.80;99.90
13251;DHT22;6692;50.710;7.180;2022-11-15T05:09:59;12.80;99.90
13251;DHT22;6692;50.710;7.180;2022-11-15T05:12:00;12.90;99.90
13251;DHT22;6692;50.710;7.180;2022-11-15T05:14:01;12.90;99.90
13251;DHT22;6692;50.710;7.180;2022-11-15T05:16:02;12.90;99.90
13251;DHT22;6692;50.710;7.180;2022-11-15T05:18:02;12.90;99.90
13251;DHT22;6692;50.710;7.180;2022-11-15T05:20:06;12.90;99.90
13251;DHT22;6692;50.710;7.180;2022-11-15T05:22:06;12.90;99.90
13251;DHT22;6692;50.710;7.180;2022-11-15T05:24:09;12.90;99.90
13251;DHT22;6692;50.710;7.180;2022-11-15T05:26:08;12.80;99.90
13251;DHT22;6692;50.710;7.180;2022-11-15T05:28:08;12.70;99.90
13251;DHT22;6692;50.710;7.180;2022-11-15T05:30:10;12.60;99.90
13251;DHT22;6692;50.710;7.180;2022-11-15T05:32:11;12.40;99.90
13251;DHT22;6692;50.710;7.180;2022-11-15T05:34:12;12.40;99.90
13251;DHT22;6692;50.710;7.180;2022-11-15T05:38:31;12.20;99.90
13251;DHT22;6692;50.710;7.180;2022-11-15T05:40:32;12.20;99.90
13251;DHT22;6692;50.710;7.180;2022-11-15T05:42:33;12.20;99.90
13251;DHT22;6692;50.710;7.180;2022-11-15T05:44:33;12.20;99.90
13251;DHT22;6692;50.710;7.180;2022-11-15T05:46:34;12.10;99.90
13251;DHT22;6692;50.710;7.180;2022-11-15T05:48:35;12.10;99.90
13251;DHT22;6692;50.710;7.180;2022-11-15T05:50:36;12.00;99.90
13251;DHT22;6692;50.710;7.180;2022-11-15T05:52:36;12.00;99.90
13251;DHT22;6692;50.710;7.180;2022-11-15T05:54:37;11.90;99.90
13251;DHT22;6692;50.710;7.180;2022-11-15T05:56:37;11.90;99.90
13251;DHT22;6692;50.710;7.180;2022-11-15T05:58:38;11.90;99.90
13251;DHT22;6692;50.710;7.180;2022-11-15T06:00:39;11.80;99.90
13251;DHT22;6692;50.710;7.180;2022-11-15T06:02:40;11.80;99.90
13251;DHT22;6692;50.710;7.180;2022-11-15T06:04:41;11.80;99.90
13251;DHT22;6692;50.710;7.180;2022-11-15T06:06:41;11.80;99.90
13251;DHT22;6692;50.710;7.180;2022-11-15T06:08:42;11.80;99.90
13251;DHT22;6692;50.710;7.180;2022-11-15T06:10:43;11.80;99.90
13251;DHT22;6692;50.710;7.180;2022-11-15T06:12:43;11.70;99.90
13251;DHT22;6692;50.710;7.180;2022-11-15T06:14:44;11.70;99.90
13251;DHT22;6692;50.710;7.180;2022-11-15T06:16:45;11.80;99.90
13251;DHT22;6692;50.710;7.180;2022-11-15T06:18:45;11.90;99.90
13251;DHT22;6692;50.710;7.180;2022-11-15T06:20:46;12.00;99.90
13251;DHT22;6692;50.710;7.180;2022-11-15T06:22:47;12.00;99.90
13251;DHT22;6692;50.710;7.180;2022-11-15T06:24:47;12.10;99.90
13251;DHT22;6692;50.710;7.180;2022-11-15T06:26:48;12.10;99.90
13251;DHT22;6692;50.710;7.180;2022-11-15T06:28:49;12.00;99.90
13251;DHT22;6692;50.710;7.180;2022-11-15T06:30:49;12.00;99.90
13251;DHT22;6692;50.710;7.180;2022-11-15T06:32:50;11.90;99.90
13251;DHT22;6692;50.710;7.180;2022-11-15T06:34:51;11.90;99.90
13251;DHT22;6692;50.710;7.180;2022-11-15T06:36:52;11.90;99.90
13251;DHT22;6692;50.710;7.180;2022-11-15T06:38:53;11.90;99.90
13251;DHT22;6692;50.710;7.180;2022-11-15T06:40:53;11.90;99.90
13251;DHT22;6692;50.710;7.180;2022-11-15T06:42:57;11.90;99.90
13251;DHT22;6692;50.710;7.180;2022-11-15T06:44:57;11.80;99.90
13251;DHT22;6692;50.710;7.180;2022-11-15T06:46:58;11.80;99.90
13251;DHT22;6692;50.710;7.180;2022-11-15T06:48:59;11.70;99.90
13251;DHT22;6692;50.710;7.180;2022-11-15T06:51:01;11.70;99.90
13251;DHT22;6692;50.710;7.180;2022-11-15T06:53:02;11.60;99.90
13251;DHT22;6692;50.710;7.180;2022-11-15T06:55:01;11.60;99.90
13251;DHT22;6692;50.710;7.180;2022-11-15T06:57:03;11.50;99.90
13251;DHT22;6692;50.710;7.180;2022-11-15T06:59:03;11.50;99.90
13251;DHT22;6692;50.710;7.180;2022-11-15T07:01:06;11.50;99.90
13251;DHT22;6692;50.710;7.180;2022-11-15T07:03:06;11.50;99.90
13251;DHT22;6692;50.710;7.180;2022-11-15T07:05:07;11.50;99.90
13251;DHT22;6692;50.710;7.180;2022-11-15T07:07:09;11.40;99.90
13251;DHT22;6692;50.710;7.180;2022-11-15T07:09:09;11.40;99.90
13251;DHT22;6692;50.710;7.180;2022-11-15T07:11:09;11.40;99.90
13251;DHT22;6692;50.710;7.180;2022-11-15T07:13:10;11.40;99.90
13251;DHT22;6692;50.710;7.180;2022-11-15T07:15:11;11.40;99.90
13251;DHT22;6692;50.710;7.180;2022-11-15T07:17:11;11.40;99.90
13251;DHT22;6692;50.710;7.180;2022-11-15T07:19:12;11.40;99.90
13251;DHT22;6692;50.710;7.180;2022-11-15T07:21:13;11.40;99.90
13251;DHT22;6692;50.710;7.180;2022-11-15T07:23:14;11.30;99.90
13251;DHT22;6692;50.710;7.180;2022-11-15T07:25:15;11.40;99.90
13251;DHT22;6692;50.710;7.180;2022-11-15T07:27:15;11.40;99.90
13251;DHT22;6692;50.710;7.180;2022-11-15T07:29:17;11.50;99.90
13251;DHT22;6692;50.710;7.180;2022-11-15T07:31:18;11.40;99.90
13251;DHT22;6692;50.710;7.180;2022-11-15T07:33:19;11.50;99.90
13251;DHT22;6692;50.710;7.180;2022-11-15T07:35:20;11.50;99.90
13251;DHT22;6692;50.710;7.180;2022-11-15T07:37:20;11.60;99.90
13251;DHT22;6692;50.710;7.180;2022-11-15T07:39:21;11.50;99.90
13251;DHT22;6692;50.710;7.180;2022-11-15T07:41:22;11.60;99.90
13251;DHT22;6692;50.710;7.180;2022-11-15T07:43:22;11.60;99.90
13251;DHT22;6692;50.710;7.180;2022-11-15T07:45:23;11.70;99.90
13251;DHT22;6692;50.710;7.180;2022-11-15T07:47:24;11.70;99.90
13251;DHT22;6692;50.710;7.180;2022-11-15T07:49:24;11.70;99.90
13251;DHT22;6692;50.710;7.180;2022-11-15T07:51:25;11.80;99.90
13251;DHT22;6692;50.710;7.180;2022-11-15T07:53:26;11.80;99.90
13251;DHT22;6692;50.710;7.180;2022-11-15T07:55:27;11.80;99.90
13251;DHT22;6692;50.710;7.180;2022-11-15T07:57:28;11.90;99.90
13251;DHT22;6692;50.710;7.180;2022-11-15T07:59:28;11.90;99.90
13251;DHT22;6692;50.710;7.180;2022-11-15T08:01:30;11.90;99.90
13251;DHT22;6692;50.710;7.180;2022-11-15T08:03:31;11.90;99.90
13251;DHT22;6692;50.710;7.180;2022-11-15T08:05:31;12.00;99.90
13251;DHT22;6692;50.710;7.180;2022-11-15T08:07:32;12.00;99.90
13251;DHT22;6692;50.710;7.180;2022-11-15T08:09:32;12.00;99.90
13251;DHT22;6692;50.710;7.180;2022-11-15T08:11:33;12.10;99.90
13251;DHT22;6692;50.710;7.180;2022-11-15T08:13:34;12.00;99.90
13251;DHT22;6692;50.710;7.180;2022-11-15T08:15:35;12.10;99.90
13251;DHT22;6692;50.710;7.180;2022-11-15T08:17:36;12.10;99.90
13251;DHT22;6692;50.710;7.180;2022-11-15T08:19:36;12.10;99.90
13251;DHT22;6692;50.710;7.180;2022-11-15T08:21:37;12.10;99.90
13251;DHT22;6692;50.710;7.180;2022-11-15T08:23:38;12.10;99.90
13251;DHT22;6692;50.710;7.180;2022-11-15T08:25:38;12.10;99.90
13251;DHT22;6692;50.710;7.180;2022-11-15T08:27:40;12.20;99.90
13251;DHT22;6692;50.710;7.180;2022-11-15T08:29:42;12.20;99.90
13251;DHT22;6692;50.710;7.180;2022-11-15T08:31:42;12.20;99.90
13251;DHT22;6692;50.710;7.180;2022-11-15T08:33:44;12.30;99.90
13251;DHT22;6692;50.710;7.180;2022-11-15T08:35:44;12.30;99.90
13251;DHT22;6692;50.710;7.180;2022-11-15T08:37:45;12.30;99.90
13251;DHT22;6692;50.710;7.180;2022-11-15T08:39:46;12.30;99.90
13251;DHT22;6692;50.710;7.180;2022-11-15T08:41:46;12.30;99.90
13251;DHT22;6692;50.710;7.180;2022-11-15T08:43:47;12.40;99.90
13251;DHT22;6692;50.710;7.180;2022-11-15T08:45:48;12.40;99.90
13251;DHT22;6692;50.710;7.180;2022-11-15T08:47:48;12.40;99.90
13251;DHT22;6692;50.710;7.180;2022-11-15T08:49:49;12.40;99.90
13251;DHT22;6692;50.710;7.180;2022-11-15T08:51:50;12.40;99.90
13251;DHT22;6692;50.710;7.180;2022-11-15T08:53:50;12.50;99.90
13251;DHT22;6692;50.710;7.180;2022-11-15T08:55:51;12.50;99.90
13251;DHT22;6692;50.710;7.180;2022-11-15T08:57:52;12.50;99.90
13251;DHT22;6692;50.710;7.180;2022-11-15T08:59:52;12.50;99.90
13251;DHT22;6692;50.710;7.180;2022-11-15T09:01:54;12.60;99.90
13251;DHT22;6692;50.710;7.180;2022-11-15T09:03:54;12.60;99.90
13251;DHT22;6692;50.710;7.180;2022-11-15T09:05:55;12.60;99.90
13251;DHT22;6692;50.710;7.180;2022-11-15T09:07:56;12.70;99.90
13251;DHT22;6692;50.710;7.180;2022-11-15T09:09:56;12.70;99.90
13251;DHT22;6692;50.710;7.180;2022-11-15T09:11:58;12.80;99.90
13251;DHT22;6692;50.710;7.180;2022-11-15T09:13:59;12.80;99.90
13251;DHT22;6692;50.710;7.180;2022-11-15T09:16:00;12.80;99.90
13251;DHT22;6692;50.710;7.180;2022-11-15T09:18:00;12.80;99.90
13251;DHT22;6692;50.710;7.180;2022-11-15T09:20:01;12.80;99.90
13251;DHT22;6692;50.710;7.180;2022-11-15T09:22:04;12.80;99.90
13251;DHT22;6692;50.710;7.180;2022-11-15T09:24:03;12.80;99.90
13251;DHT22;6692;50.710;7.180;2022-11-15T09:26:04;12.90;99.90
13251;DHT22;6692;50.710;7.180;2022-11-15T09:28:06;12.90;99.90
13251;DHT22;6692;50.710;7.180;2022-11-15T09:30:07;12.90;99.90
13251;DHT22;6692;50.710;7.180;2022-11-15T09:32:08;12.90;99.90
13251;DHT22;6692;50.710;7.180;2022-11-15T09:34:10;13.00;99.90
13251;DHT22;6692;50.710;7.180;2022-11-15T09:36:10;13.00;99.90
13251;DHT22;6692;50.710;7.180;2022-11-15T09:38:11;13.00;99.90
13251;DHT22;6692;50.710;7.180;2022-11-15T09:40:13;13.00;99.90
13251;DHT22;6692;50.710;7.180;2022-11-15T09:44:49;13.10;99.90
13251;DHT22;6692;50.710;7.180;2022-11-15T09:47:10;13.10;99.90
13251;DHT22;6692;50.710;7.180;2022-11-15T09:49:06;13.10;99.90
13251;DHT22;6692;50.710;7.180;2022-11-15T09:51:08;13.20;99.90
13251;DHT22;6692;50.710;7.180;2022-11-15T09:53:11;13.10;99.90
13251;DHT22;6692;50.710;7.180;2022-11-15T09:55:11;13.20;99.90
13251;DHT22;6692;50.710;7.180;2022-11-15T09:57:12;13.20;99.90
13251;DHT22;6692;50.710;7.180;2022-11-15T09:59:26;13.20;99.90
13251;DHT22;6692;50.710;7.180;2022-11-15T10:03:45;13.30;99.90
13251;DHT22;6692;50.710;7.180;2022-11-15T10:05:47;13.30;99.90
13251;DHT22;6692;50.710;7.180;2022-11-15T10:07:59;13.30;99.90
13251;DHT22;6692;50.710;7.180;2022-11-15T10:10:10;13.30;99.90
13251;DHT22;6692;50.710;7.180;2022-11-15T10:12:06;13.40;99.90
13251;DHT22;6692;50.710;7.180;2022-11-15T10:14:12;13.40;99.90
13251;DHT22;6692;50.710;7.180;2022-11-15T10:16:21;13.30;99.90
13251;DHT22;6692;50.710;7.180;2022-11-15T10:18:19;13.30;99.90
13251;DHT22;6692;50.710;7.180;2022-11-15T10:20:21;13.30;99.90
13251;DHT22;6692;50.710;7.180;2022-11-15T10:22:40;13.30;99.90
13251;DHT22;6692;50.710;7.180;2022-11-15T10:24:41;13.30;99.90
13251;DHT22;6692;50.710;7.180;2022-11-15T10:26:46;13.30;99.90
13251;DHT22;6692;50.710;7.180;2022-11-15T10:28:46;13.30;99.90
13251;DHT22;6692;50.710;7.180;2022-11-15T10:30:48;13.30;99.90
13251;DHT22;6692;50.710;7.180;2022-11-15T10:32:48;13.30;99.90
13251;DHT22;6692;50.710;7.180;2022-11-15T10:34:49;13.30;99.90
13251;DHT22;6692;50.710;7.180;2022-11-15T10:36:56;13.30;99.90
13251;DHT22;6692;50.710;7.180;2022-11-15T10:38:56;13.30;99.90
13251;DHT22;6692;50.710;7.180;2022-11-15T10:41:06;13.30;99.90
13251;DHT22;6692;50.710;7.180;2022-11-15T10:43:06;13.40;99.90
13251;DHT22;6692;50.710;7.180;2022-11-15T10:45:22;13.40;99.90
13251;DHT22;6692;50.710;7.180;2022-11-15T10:47:20;13.40;99.90
13251;DHT22;6692;50.710;7.180;2022-11-15T10:49:15;13.40;99.90
13251;DHT22;6692;50.710;7.180;2022-11-15T10:51:20;13.40;99.90
13251;DHT22;6692;50.710;7.180;2022-11-15T10:53:31;13.40;99.90
13251;DHT22;6692;50.710;7.180;2022-11-15T10:55:31;13.50;99.90
13251;DHT22;6692;50.710;7.180;2022-11-15T10:57:33;13.50;99.90
13251;DHT22;6692;50.710;7.180;2022-11-15T10:59:35;13.50;99.90
13251;DHT22;6692;50.710;7.180;2022-11-15T11:01:34;13.50;99.90
13251;DHT22;6692;50.710;7.180;2022-11-15T11:03:35;13.50;99.90
13251;DHT22;6692;50.710;7.180;2022-11-15T11:05:37;13.50;99.90
13251;DHT22;6692;50.710;7.180;2022-11-15T11:07:37;13.50;99.90
13251;DHT22;6692;50.710;7.180;2022-11-15T11:09:38;13.50;99.90
13251;DHT22;6692;50.710;7.180;2022-11-15T11:11:47;13.50;99.90
13251;DHT22;6692;50.710;7.180;2022-11-15T11:13:46;13.50;99.90
13251;DHT22;6692;50.710;7.180;2022-11-15T11:15:46;13.40;99.90
13251;DHT22;6692;50.710;7.180;2022-11-15T11:17:57;13.40;99.90
13251;DHT22;6692;50.710;7.180;2022-11-15T11:22:11;13.40;99.90
13251;DHT22;6692;50.710;7.180;2022-11-15T11:24:33;13.50;99.90
13251;DHT22;6692;50.710;7.180;2022-11-15T11:26:42;13.40;99.90
13251;DHT22;6692;50.710;7.180;2022-11-15T11:28:49;13.60;99.90
13251;DHT22;6692;50.710;7.180;2022-11-15T11:30:57;13.60;99.90
13251;DHT22;6692;50.710;7.180;2022-11-15T11:35:19;13.70;99.90
13251;DHT22;6692;50.710;7.180;2022-11-15T11:37:25;13.80;99.90
13251;DHT22;6692;50.710;7.180;2022-11-15T11:41:38;13.90;99.90
13251;DHT22;6692;50.710;7.180;2022-11-15T11:44:03;14.00;99.90
13251;DHT22;6692;50.710;7.180;2022-11-15T11:48:21;14.00;99.90
13251;DHT22;6692;50.710;7.180;2022-11-15T11:50:20;14.00;99.90
13251;DHT22;6692;50.710;7.180;2022-11-15T11:52:23;14.00;99.90
13251;DHT22;6692;50.710;7.180;2022-11-15T11:54:25;14.00;99.90
13251;DHT22;6692;50.710;7.180;2022-11-15T11:56:27;14.00;99.90
13251;DHT22;6692;50.710;7.180;2022-11-15T11:58:34;14.00;99.90
13251;DHT22;6692;50.710;7.180;2022-11-15T12:00:33;14.00;99.90
13251;DHT22;6692;50.710;7.180;2022-11-15T12:02:35;14.00;99.90
13251;DHT22;6692;50.710;7.180;2022-11-15T12:04:36;14.10;99.90
13251;DHT22;6692;50.710;7.180;2022-11-15T12:06:37;14.10;99.90
13251;DHT22;6692;50.710;7.180;2022-11-15T12:08:46;14.20;99.90
13251;DHT22;6692;50.710;7.180;2022-11-15T12:10:45;14.30;99.90
13251;DHT22;6692;50.710;7.180;2022-11-15T12:12:58;14.30;99.90
13251;DHT22;6692;50.710;7.180;2022-11-15T12:15:03;14.30;99.90
13251;DHT22;6692;50.710;7.180;2022-11-15T12:17:02;14.40;99.90
13251;DHT22;6692;50.710;7.180;2022-11-15T12:19:04;14.70;99.90
13251;DHT22;6692;50.710;7.180;2022-11-15T12:21:08;14.70;99.90
13251;DHT22;6692;50.710;7.180;2022-11-15T12:23:12;14.90;99.90
13251;DHT22;6692;50.710;7.180;2022-11-15T12:25:16;14.90;99.90
13251;DHT22;6692;50.710;7.180;2022-11-15T12:27:17;14.90;99.90
13251;DHT22;6692;50.710;7.180;2022-11-15T12:29:22;14.90;99.90
13251;DHT22;6692;50.710;7.180;2022-11-15T12:31:31;14.90;99.90
13251;DHT22;6692;50.710;7.180;2022-11-15T12:33:39;14.90;99.90
13251;DHT22;6692;50.710;7.180;2022-11-15T12:35:41;15.00;99.90
13251;DHT22;6692;50.710;7.180;2022-11-15T12:37:50;15.10;99.90
13251;DHT22;6692;50.710;7.180;2022-11-15T12:40:19;15.20;99.90
13251;DHT22;6692;50.710;7.180;2022-11-15T12:42:40;15.30;99.90
13251;DHT22;6692;50.710;7.180;2022-11-15T12:44:57;15.30;99.90
13251;DHT22;6692;50.710;7.180;2022-11-15T12:47:01;15.50;99.90
13251;DHT22;6692;50.710;7.180;2022-11-15T12:49:02;15.50;99.90
13251;DHT22;6692;50.710;7.180;2022-11-15T12:51:02;15.60;99.90
13251;DHT22;6692;50.710;7.180;2022-11-15T12:53:26;15.60;99.90
13251;DHT22;6692;50.710;7.180;2022-11-15T12:55:29;15.60;99.90
13251;DHT22;6692;50.710;7.180;2022-11-15T12:57:31;15.60;99.90
13251;DHT22;6692;50.710;7.180;2022-11-15T13:01:56;15.60;99.90
13251;DHT22;6692;50.710;7.180;2022-11-15T13:06:08;15.50;99.90
13251;DHT22;6692;50.710;7.180;2022-11-15T13:08:08;15.60;99.90
13251;DHT22;6692;50.710;7.180;2022-11-15T13:10:28;15.70;99.90
13251;DHT22;6692;50.710;7.180;2022-11-15T13:12:53;15.70;99.90
13251;DHT22;6692;50.710;7.180;2022-11-15T13:14:56;15.80;99.90
13251;DHT22;6692;50.710;7.180;2022-11-15T13:16:58;15.70;99.90
13251;DHT22;6692;50.710;7.180;2022-11-15T13:18:59;15.70;99.90
13251;DHT22;6692;50.710;7.180;2022-11-15T13:21:00;16.00;99.90
13251;DHT22;6692;50.710;7.180;2022-11-15T13:23:08;15.90;99.90
13251;DHT22;6692;50.710;7.180;2022-11-15T13:25:25;15.90;99.90
13251;DHT22;6692;50.710;7.180;2022-11-15T13:27:22;15.70;99.90
13251;DHT22;6692;50.710;7.180;2022-11-15T13:29:23;15.70;99.90
13251;DHT22;6692;50.710;7.180;2022-11-15T13:31:28;15.70;99.90
13251;DHT22;6692;50.710;7.180;2022-11-15T13:33:36;15.60;99.90